Hauptseite
METAR-TAF:

METAR-TAF

Flughäfen :

Aigen im Ennstal, Österreich

Breite: 47-32N, Länge: 014-08E, Höhe: 638 m

METAR: fehlend

Zeit: 18:12 (16:12 UTC)

Prognose

Neuester Wetterbericht von vor 10 Stunden und 57 Minuten, um 05:15 UTC
Gültige Prognose vom 23 um 06 UTC bis 23 um 15 UTC
Wind 3 kt aus unterschiedlichen Richtungen
Sichtweite 10 km oder mehr
Leicht bewölkt in der Höhe von 500 ft
Aufgelockert bewölkt in der Höhe von 1500 ft
Durchbrochene Bewölkung in der Höhe von 2200 ft
Übergehend zu
vom 23 um 08 UTC bis 23 um 10 UTC
Wind 5 kt aus Nordost
Aufgelockert bewölkt in der Höhe von 3000 ft
Durchbrochene Bewölkung in der Höhe von 28000 ft

TAF: LOXA 230515Z 2306/2315 VRB03KT 9999 FEW005 SCT015 BKN022 BECMG 2308/2310 05005KT SCT030 BKN280

Wetterbeobachtungen und Prognosen von mehr als 4000 Flughäfen (METAR und TAF Bericht).

Die verfügbaren Stationen werden durch gelbe und rote Markierungen auf der Karte dargestellt.

Führen Sie die Maus auf sie, um den Namen der Station zu sehen.

Darauf klicken, um die Beobachtung von Wetterbeobachtungen und Prognosen zu sehen.

Um die Karte zu ändern : klicken Sie auf den grünen Tasten mit einem schwarzen Kreuz Zum Vergrößern, auf den grünen Button mit einem Gedankenstrich zu verkleinern, oder auf die grünen Pfeile für benachbarte Karten.


METAR-TAF: